createdAt,value
2022-11-05T00:00:21.237Z,15.43
2022-11-05T00:03:06.631Z,19.03
2022-11-05T00:05:51.977Z,18.10
2022-11-05T00:08:37.114Z,19.90
2022-11-05T00:11:03.932Z,18.77
2022-11-05T00:13:49.029Z,19.13
2022-11-05T00:16:48.024Z,16.47
2022-11-05T00:19:14.901Z,17.73
2022-11-05T00:22:00.316Z,18.03
2022-11-05T00:24:45.656Z,19.27
2022-11-05T00:27:12.604Z,17.80
2022-11-05T00:29:39.231Z,18.20
2022-11-05T00:32:06.151Z,18.80
2022-11-05T00:34:32.913Z,19.90
2022-11-05T00:36:59.555Z,19.73
2022-11-05T00:39:26.148Z,20.50
2022-11-05T00:42:11.417Z,18.60
2022-11-05T00:44:56.744Z,18.00
2022-11-05T00:47:42.139Z,17.30
2022-11-05T00:50:10.761Z,16.03
2022-11-05T00:52:56.295Z,17.67
2022-11-05T00:55:24.471Z,17.83
2022-11-05T00:57:51.391Z,16.20
2022-11-05T01:00:18.421Z,16.10
2022-11-05T01:02:45.447Z,12.03
2022-11-05T01:05:12.973Z,12.37
2022-11-05T01:07:39.930Z,11.57
2022-11-05T01:10:07.028Z,12.13
2022-11-05T01:12:34.133Z,9.07
2022-11-05T01:15:01.805Z,8.27
2022-11-05T01:17:28.519Z,8.23
2022-11-05T01:19:55.671Z,8.17
2022-11-05T01:22:22.363Z,7.97
2022-11-05T01:24:49.110Z,8.20
2022-11-05T01:27:16.008Z,6.73
2022-11-05T01:29:42.791Z,7.00
2022-11-05T01:32:09.772Z,6.60
2022-11-05T01:34:36.496Z,7.17
2022-11-05T01:37:03.135Z,6.40
2022-11-05T01:39:29.904Z,6.13
2022-11-05T01:41:58.712Z,5.10
2022-11-05T01:45:01.359Z,5.37
2022-11-05T01:47:48.911Z,4.27
2022-11-05T01:50:25.196Z,5.93
2022-11-05T01:52:57.416Z,4.10
2022-11-05T01:55:28.377Z,4.70
2022-11-05T01:57:57.473Z,5.33
2022-11-05T02:00:24.287Z,4.57
2022-11-05T02:02:51.289Z,3.73
2022-11-05T02:05:18.060Z,3.73
2022-11-05T02:07:46.388Z,3.77
2022-11-05T02:10:15.724Z,2.67
2022-11-05T02:12:45.260Z,2.77
2022-11-05T02:15:14.343Z,4.13
2022-11-05T02:17:56.838Z,4.47
2022-11-05T02:20:34.722Z,3.53
2022-11-05T02:23:29.048Z,3.37
2022-11-05T02:26:32.627Z,3.37
2022-11-05T02:29:08.572Z,3.77
2022-11-05T02:31:45.207Z,4.10
2022-11-05T02:34:33.092Z,2.83
2022-11-05T02:37:28.502Z,2.63
2022-11-05T02:40:20.632Z,3.53
2022-11-05T02:43:17.514Z,3.47
2022-11-05T02:46:14.159Z,4.43
2022-11-05T02:48:59.530Z,3.53
2022-11-05T02:51:35.667Z,3.47
2022-11-05T02:54:12.466Z,4.50
2022-11-05T02:56:47.070Z,4.93
2022-11-05T02:59:14.222Z,4.53
2022-11-05T03:01:43.204Z,7.93
2022-11-05T03:04:13.429Z,6.87
2022-11-05T03:07:19.898Z,7.43
2022-11-05T03:10:07.075Z,6.03
2022-11-05T03:12:42.938Z,7.73
2022-11-05T03:15:30.003Z,7.90
2022-11-05T03:18:11.521Z,8.93
2022-11-05T03:21:00.753Z,9.23
2022-11-05T03:23:40.196Z,10.47
2022-11-05T03:26:19.459Z,11.70
2022-11-05T03:28:56.255Z,14.07
2022-11-05T03:31:25.139Z,15.47
2022-11-05T03:33:53.819Z,16.70
2022-11-05T03:36:27.040Z,14.80
2022-11-05T03:38:56.079Z,18.57
2022-11-05T03:41:25.157Z,15.90
2022-11-05T03:43:57.235Z,18.47
2022-11-05T03:46:29.981Z,17.97
2022-11-05T03:49:01.371Z,19.50
2022-11-05T03:51:46.593Z,16.77
2022-11-05T03:54:14.230Z,17.73
2022-11-05T03:56:54.893Z,18.87
2022-11-05T03:59:22.457Z,16.53
2022-11-05T04:01:50.067Z,18.83
2022-11-05T04:04:16.884Z,17.20
2022-11-05T04:07:02.401Z,16.80
2022-11-05T04:09:48.510Z,18.10
2022-11-05T04:12:34.602Z,19.33
2022-11-05T04:15:01.295Z,17.50
2022-11-05T04:17:28.117Z,18.43
2022-11-05T04:20:13.256Z,19.80
2022-11-05T04:22:58.923Z,19.20
2022-11-05T04:25:25.541Z,18.33
2022-11-05T04:27:52.652Z,21.87
2022-11-05T04:30:20.244Z,20.80
2022-11-05T04:33:07.347Z,22.23
2022-11-05T04:35:45.671Z,24.27
2022-11-05T04:38:18.706Z,23.53
2022-11-05T04:40:46.690Z,21.60
2022-11-05T04:43:18.809Z,19.37
2022-11-05T04:45:46.073Z,22.90
2022-11-05T04:48:12.763Z,19.87
2022-11-05T04:50:39.651Z,21.77
2022-11-05T04:53:06.324Z,22.90
2022-11-05T04:55:33.028Z,22.20
2022-11-05T04:57:59.636Z,22.33
2022-11-05T05:00:26.442Z,22.27
2022-11-05T05:02:53.104Z,26.73
2022-11-05T05:05:21.278Z,22.63
2022-11-05T05:07:47.871Z,21.73
2022-11-05T05:10:15.184Z,22.27
2022-11-05T05:12:41.940Z,20.93
2022-11-05T05:15:08.985Z,23.20
2022-11-05T05:17:35.604Z,28.10
2022-11-05T05:20:21.632Z,22.03
2022-11-05T05:22:53.215Z,25.30
2022-11-05T05:25:19.951Z,22.60
2022-11-05T05:27:46.773Z,23.23
2022-11-05T05:30:13.468Z,22.37
2022-11-05T05:32:40.288Z,22.13
2022-11-05T05:35:07.191Z,23.00
2022-11-05T05:37:34.033Z,23.47
2022-11-05T05:40:00.647Z,22.20
2022-11-05T05:42:27.463Z,22.23
2022-11-05T05:44:54.090Z,24.50
2022-11-05T05:47:20.857Z,27.27
2022-11-05T05:49:47.713Z,22.27
2022-11-05T05:52:14.314Z,23.97
2022-11-05T05:54:43.030Z,23.90
2022-11-05T05:57:10.076Z,22.07
2022-11-05T05:59:36.927Z,24.00
2022-11-05T06:02:03.693Z,23.83
2022-11-05T06:04:30.639Z,24.17
2022-11-05T06:06:57.207Z,24.03
2022-11-05T06:09:23.958Z,25.87
2022-11-05T06:11:50.830Z,23.97
2022-11-05T06:14:17.519Z,21.87
2022-11-05T06:16:44.316Z,21.90
2022-11-05T06:19:10.913Z,22.23
2022-11-05T06:21:38.046Z,21.83
2022-11-05T06:24:04.840Z,25.17
2022-11-05T06:26:31.857Z,23.63
2022-11-05T06:28:58.440Z,24.17
2022-11-05T06:31:25.400Z,22.13
2022-11-05T06:33:52.404Z,22.33
2022-11-05T06:36:20.087Z,23.50
2022-11-05T06:38:47.243Z,20.87
2022-11-05T06:41:14.031Z,24.20
2022-11-05T06:43:40.779Z,22.17
2022-11-05T06:46:08.037Z,20.83
2022-11-05T06:48:34.867Z,24.63
2022-11-05T06:51:01.949Z,23.23
2022-11-05T06:53:29.818Z,23.17
2022-11-05T06:55:56.564Z,23.00
2022-11-05T06:58:23.291Z,20.97
2022-11-05T07:00:50.346Z,21.00
2022-11-05T07:03:17.852Z,23.87
2022-11-05T07:05:48.009Z,21.70
2022-11-05T07:08:15.609Z,19.37
2022-11-05T07:10:42.230Z,19.87
2022-11-05T07:13:09.364Z,20.50
2022-11-05T07:15:36.912Z,21.43
2022-11-05T07:18:04.496Z,19.20
2022-11-05T07:20:34.154Z,21.47
2022-11-05T07:23:10.658Z,21.13
2022-11-05T07:25:37.692Z,20.20
2022-11-05T07:28:04.984Z,21.40
2022-11-05T07:30:33.222Z,18.83
2022-11-05T07:33:00.032Z,24.27
2022-11-05T07:35:30.043Z,20.67
2022-11-05T07:37:57.035Z,20.53
2022-11-05T07:40:25.710Z,20.20
2022-11-05T07:42:54.592Z,22.13
2022-11-05T07:45:21.645Z,20.20
2022-11-05T07:48:14.477Z,19.00
2022-11-05T07:50:41.239Z,18.97
2022-11-05T07:53:11.798Z,18.50
2022-11-05T07:55:40.972Z,19.97
2022-11-05T07:58:07.823Z,21.07
2022-11-05T08:00:34.654Z,21.40
2022-11-05T08:03:08.206Z,20.20
2022-11-05T08:05:39.045Z,21.63
2022-11-05T08:08:08.044Z,23.27
2022-11-05T08:10:35.551Z,21.50
2022-11-05T08:13:02.798Z,19.77
2022-11-05T08:15:29.616Z,16.77
2022-11-05T08:18:04.808Z,21.47
2022-11-05T08:20:32.210Z,21.20
2022-11-05T08:22:59.322Z,21.43
2022-11-05T08:25:26.417Z,19.43
2022-11-05T08:27:58.379Z,18.77
2022-11-05T08:30:25.499Z,16.57
2022-11-05T08:32:57.784Z,18.30
2022-11-05T08:35:25.308Z,15.60
2022-11-05T08:38:02.556Z,19.43
2022-11-05T08:40:31.534Z,18.67
2022-11-05T08:42:59.195Z,18.70
2022-11-05T08:45:27.283Z,16.43
2022-11-05T08:48:08.447Z,17.40
2022-11-05T08:50:37.131Z,15.80
2022-11-05T08:53:05.178Z,18.50
2022-11-05T08:55:32.199Z,18.07
2022-11-05T08:58:00.991Z,16.70
2022-11-05T09:00:30.805Z,16.10
2022-11-05T09:03:01.892Z,15.90
2022-11-05T09:05:29.860Z,15.53
2022-11-05T09:08:00.771Z,17.23
2022-11-05T09:10:28.627Z,14.87
2022-11-05T09:12:55.422Z,15.30
2022-11-05T09:15:23.289Z,14.63
2022-11-05T09:17:50.336Z,14.80
2022-11-05T09:20:17.091Z,14.47
2022-11-05T09:22:44.185Z,15.70
2022-11-05T09:25:11.289Z,14.97
2022-11-05T09:27:37.959Z,14.90
2022-11-05T09:30:05.433Z,14.77
2022-11-05T09:32:32.749Z,15.13
2022-11-05T09:35:02.568Z,15.93
2022-11-05T09:37:29.617Z,10.87
2022-11-05T09:39:56.233Z,10.03
2022-11-05T09:42:29.178Z,11.93
2022-11-05T09:45:03.364Z,9.50
2022-11-05T09:47:36.587Z,10.93
2022-11-05T09:50:08.754Z,14.33
2022-11-05T09:52:35.531Z,9.03
2022-11-05T09:55:18.851Z,10.27
2022-11-05T09:57:55.948Z,10.53
2022-11-05T10:00:23.092Z,10.33
2022-11-05T10:02:55.538Z,10.63
2022-11-05T10:05:24.931Z,9.63
2022-11-05T10:07:56.678Z,8.43
2022-11-05T10:10:29.530Z,10.90
2022-11-05T10:13:05.019Z,8.97
2022-11-05T10:15:37.267Z,10.13
2022-11-05T10:18:19.338Z,8.33
2022-11-05T10:20:46.604Z,8.30
2022-11-05T10:23:18.827Z,8.47
2022-11-05T10:25:50.474Z,9.57
2022-11-05T10:28:22.110Z,7.37
2022-11-05T10:30:52.769Z,6.67
2022-11-05T10:33:31.496Z,8.60
2022-11-05T10:36:06.109Z,7.30
2022-11-05T10:38:33.279Z,6.90
2022-11-05T10:41:28.836Z,6.83
2022-11-05T10:44:20.987Z,6.60
2022-11-05T10:47:06.886Z,8.50
2022-11-05T10:49:59.576Z,6.60
2022-11-05T10:52:33.415Z,6.37
2022-11-05T10:55:04.212Z,7.23
2022-11-05T10:57:39.908Z,5.17
2022-11-05T11:00:18.909Z,5.77
2022-11-05T11:03:01.576Z,7.20
2022-11-05T11:05:35.461Z,8.15
2022-11-05T11:08:02.339Z,4.85
2022-11-05T11:10:32.485Z,5.85
2022-11-05T11:12:59.630Z,5.25
2022-11-05T11:15:29.461Z,5.00
2022-11-05T11:17:56.663Z,4.47
2022-11-05T11:20:31.572Z,5.68
2022-11-05T11:23:15.118Z,5.28
2022-11-05T11:26:01.268Z,3.80
2022-11-05T11:28:32.801Z,3.85
2022-11-05T11:31:29.282Z,3.75
2022-11-05T11:34:24.519Z,7.43
2022-11-05T11:36:55.470Z,5.23
2022-11-05T11:39:30.345Z,4.37
2022-11-05T11:42:01.683Z,6.00
2022-11-05T11:44:30.998Z,5.90
2022-11-05T11:47:02.055Z,3.27
2022-11-05T11:49:42.033Z,4.17
2022-11-05T11:52:15.279Z,5.60
2022-11-05T11:54:42.368Z,4.00
2022-11-05T11:57:29.004Z,3.43
2022-11-05T12:00:14.394Z,4.40
2022-11-05T12:02:46.791Z,4.13
2022-11-05T12:05:37.697Z,4.13
2022-11-05T12:08:18.931Z,5.37
2022-11-05T12:10:57.844Z,3.70
2022-11-05T12:13:43.176Z,4.87
2022-11-05T12:16:20.573Z,4.53
2022-11-05T12:19:02.498Z,5.97
2022-11-05T12:21:58.966Z,3.23
2022-11-05T12:24:38.064Z,5.50
2022-11-05T12:27:38.293Z,6.47
2022-11-05T12:30:17.467Z,5.20
2022-11-05T12:33:18.945Z,3.83
2022-11-05T12:36:14.419Z,4.43
2022-11-05T12:39:19.870Z,4.53
2022-11-05T12:44:58.908Z,4.83
2022-11-05T12:47:45.321Z,5.70
2022-11-05T12:50:22.156Z,5.03
2022-11-05T12:53:15.812Z,5.03
2022-11-05T12:55:48.716Z,3.03
2022-11-05T12:58:36.772Z,3.57
2022-11-05T13:01:16.813Z,3.30
2022-11-05T13:03:59.560Z,4.10
2022-11-05T13:06:34.188Z,3.83
2022-11-05T13:09:07.685Z,3.17
2022-11-05T13:11:47.025Z,3.37
2022-11-05T13:14:22.271Z,5.63
2022-11-05T13:17:06.933Z,5.10
2022-11-05T13:19:59.503Z,4.27
2022-11-05T13:22:47.732Z,2.80
2022-11-05T13:25:29.243Z,2.40
2022-11-05T13:28:22.235Z,5.13
2022-11-05T13:30:52.631Z,3.50
2022-11-05T13:33:36.312Z,2.30
2022-11-05T13:36:49.170Z,2.70
2022-11-05T13:39:28.836Z,3.37
2022-11-05T13:42:30.820Z,3.93
2022-11-05T13:45:32.065Z,3.77
2022-11-05T13:48:16.848Z,2.37
2022-11-05T13:51:05.719Z,2.13
2022-11-05T13:53:42.536Z,6.10
2022-11-05T13:56:47.197Z,4.00
2022-11-05T13:59:35.034Z,4.50
2022-11-05T14:02:05.303Z,3.23
2022-11-05T14:04:36.061Z,3.07
2022-11-05T14:07:12.443Z,2.80
2022-11-05T14:09:41.466Z,3.00
2022-11-05T14:12:19.502Z,2.27
2022-11-05T14:14:58.450Z,2.87
2022-11-05T14:18:04.270Z,3.67
2022-11-05T14:20:31.118Z,4.13
2022-11-05T14:23:25.842Z,3.33
2022-11-05T14:26:11.574Z,3.27
2022-11-05T14:28:38.157Z,4.30
2022-11-05T14:31:20.644Z,3.57
2022-11-05T14:34:11.951Z,4.23
2022-11-05T14:36:40.755Z,5.10
2022-11-05T14:39:33.814Z,3.60
2022-11-05T14:42:06.536Z,3.93
2022-11-05T14:44:35.299Z,4.30
2022-11-05T14:47:05.716Z,4.80
2022-11-05T14:50:02.892Z,5.90
2022-11-05T14:52:29.955Z,3.80
2022-11-05T14:54:58.170Z,3.87
2022-11-05T14:57:43.281Z,3.60
2022-11-05T15:00:28.416Z,4.83
2022-11-05T15:03:01.367Z,3.57
2022-11-05T15:05:31.059Z,4.57
2022-11-05T15:07:58.580Z,3.93
2022-11-05T15:10:35.098Z,4.70
2022-11-05T15:13:06.200Z,4.73
2022-11-05T15:15:43.016Z,3.53
2022-11-05T15:18:26.914Z,5.40
2022-11-05T15:20:56.955Z,3.10
2022-11-05T15:23:29.440Z,4.77
2022-11-05T15:26:20.929Z,5.70
2022-11-05T15:28:53.524Z,3.43
2022-11-05T15:31:23.960Z,3.87
2022-11-05T15:33:50.947Z,2.83
2022-11-05T15:36:29.298Z,4.33
2022-11-05T15:39:27.562Z,5.23
2022-11-05T15:41:44.785Z,4.37
2022-11-05T15:44:31.559Z,4.07
2022-11-05T15:47:06.425Z,4.00
2022-11-05T15:49:33.664Z,4.03
2022-11-05T15:52:00.337Z,3.27
2022-11-05T15:54:31.138Z,3.90
2022-11-05T15:56:59.712Z,3.97
2022-11-05T15:59:29.149Z,6.70
2022-11-05T16:02:21.450Z,3.50
2022-11-05T16:04:49.076Z,4.60
2022-11-05T16:07:16.533Z,5.43
2022-11-05T16:09:52.567Z,4.63
2022-11-05T16:12:19.336Z,3.97
2022-11-05T16:15:17.975Z,4.37
2022-11-05T16:17:54.782Z,5.37
2022-11-05T16:20:26.139Z,5.10
2022-11-05T16:22:55.981Z,5.33
2022-11-05T16:25:28.759Z,3.90
2022-11-05T16:27:59.753Z,3.80
2022-11-05T16:30:26.820Z,5.47
2022-11-05T16:32:54.365Z,5.67
2022-11-05T16:35:24.053Z,4.37
2022-11-05T16:37:52.652Z,4.33
2022-11-05T16:40:22.287Z,4.33
2022-11-05T16:42:51.388Z,5.43
2022-11-05T16:45:21.014Z,4.33
2022-11-05T16:47:48.615Z,6.03
2022-11-05T16:50:29.842Z,4.83
2022-11-05T16:52:56.659Z,5.30
2022-11-05T16:55:23.411Z,6.30
2022-11-05T16:57:53.587Z,8.30
2022-11-05T17:00:21.686Z,8.30
2022-11-05T17:02:48.855Z,5.97
2022-11-05T17:05:25.324Z,5.47
2022-11-05T17:07:52.541Z,6.90
2022-11-05T17:10:20.571Z,5.23
2022-11-05T17:12:48.214Z,5.80
2022-11-05T17:15:15.991Z,4.80
2022-11-05T17:17:42.648Z,4.93
2022-11-05T17:20:40.378Z,5.47
2022-11-05T17:23:10.509Z,4.40
2022-11-05T17:25:38.315Z,5.00
2022-11-05T17:28:05.559Z,6.70
2022-11-05T17:30:33.035Z,7.77
2022-11-05T17:32:59.951Z,7.50
2022-11-05T17:35:27.050Z,6.57
2022-11-05T17:37:54.157Z,6.60
2022-11-05T17:40:22.604Z,6.53
2022-11-05T17:42:50.332Z,6.13
2022-11-05T17:45:17.843Z,5.43
2022-11-05T17:47:44.865Z,5.93
2022-11-05T17:50:13.621Z,5.03
2022-11-05T17:52:40.504Z,5.13
2022-11-05T17:55:16.569Z,5.73
2022-11-05T17:57:48.404Z,6.17
2022-11-05T18:00:22.052Z,5.30
2022-11-05T18:02:49.892Z,4.63
2022-11-05T18:05:20.677Z,7.43
2022-11-05T18:07:48.195Z,6.20
2022-11-05T18:10:15.776Z,7.40
2022-11-05T18:12:43.594Z,6.87
2022-11-05T18:15:11.010Z,5.47
2022-11-05T18:17:38.571Z,7.17
2022-11-05T18:20:15.770Z,5.87
2022-11-05T18:22:45.620Z,5.50
2022-11-05T18:25:13.411Z,7.97
2022-11-05T18:27:40.573Z,7.20
2022-11-05T18:30:08.079Z,6.63
2022-11-05T18:32:35.351Z,6.53
2022-11-05T18:35:01.977Z,5.57
2022-11-05T18:37:28.819Z,6.90
2022-11-05T18:39:55.581Z,7.27
2022-11-05T18:42:22.739Z,5.93
2022-11-05T18:44:49.796Z,6.23
2022-11-05T18:47:16.702Z,6.23
2022-11-05T18:49:43.475Z,6.27
2022-11-05T18:52:10.124Z,6.63
2022-11-05T18:54:36.938Z,8.07
2022-11-05T18:57:03.744Z,6.90
2022-11-05T18:59:37.790Z,7.73
2022-11-05T19:02:06.673Z,5.70
2022-11-05T19:04:35.683Z,5.90
2022-11-05T19:07:05.156Z,7.10
2022-11-05T19:09:37.988Z,6.57
2022-11-05T19:12:06.454Z,7.00
2022-11-05T19:14:33.584Z,8.00
2022-11-05T19:17:01.235Z,10.10
2022-11-05T19:19:28.194Z,9.17
2022-11-05T19:21:55.137Z,7.70
2022-11-05T19:24:21.897Z,8.47
2022-11-05T19:26:48.829Z,7.43
2022-11-05T19:29:15.640Z,8.63
2022-11-05T19:31:42.300Z,7.73
2022-11-05T19:34:09.189Z,6.60
2022-11-05T19:36:35.840Z,6.70
2022-11-05T19:39:06.505Z,7.57
2022-11-05T19:41:33.368Z,6.23
2022-11-05T19:44:01.672Z,8.00
2022-11-05T19:46:30.009Z,8.67
2022-11-05T19:48:57.434Z,7.97
2022-11-05T19:51:27.729Z,11.53
2022-11-05T19:53:55.140Z,9.27
2022-11-05T19:56:24.725Z,8.57
2022-11-05T19:58:53.074Z,7.77
2022-11-05T20:01:21.744Z,8.33
2022-11-05T20:03:48.783Z,11.50
2022-11-05T20:06:22.240Z,10.00
2022-11-05T20:11:37.798Z,9.70
2022-11-05T20:14:05.371Z,11.03
2022-11-05T20:16:37.939Z,8.23
2022-11-05T20:19:10.786Z,11.53
2022-11-05T20:21:38.431Z,8.60
2022-11-05T20:24:05.778Z,8.07
2022-11-05T20:26:32.980Z,10.00
2022-11-05T20:29:00.660Z,8.20
2022-11-05T20:31:27.364Z,8.00
2022-11-05T20:33:54.472Z,7.40
2022-11-05T20:36:22.872Z,8.63
2022-11-05T20:38:55.835Z,7.40
2022-11-05T20:41:23.005Z,7.37
2022-11-05T20:43:50.705Z,7.43
2022-11-05T20:46:19.283Z,9.07
2022-11-05T20:48:46.623Z,8.03
2022-11-05T20:51:16.510Z,7.37
2022-11-05T20:53:44.007Z,7.87
2022-11-05T20:56:19.043Z,9.23
2022-11-05T20:58:47.290Z,8.10
2022-11-05T21:01:16.164Z,6.80
2022-11-05T21:03:44.492Z,9.47
2022-11-05T21:06:11.675Z,9.70
2022-11-05T21:08:39.052Z,6.60
2022-11-05T21:11:07.120Z,9.90
2022-11-05T21:13:33.982Z,8.37
2022-11-05T21:16:01.851Z,7.57
2022-11-05T21:18:34.176Z,9.20
2022-11-05T21:21:05.818Z,9.10
2022-11-05T21:23:32.472Z,6.03
2022-11-05T21:26:03.088Z,6.50
2022-11-05T21:28:29.704Z,6.80
2022-11-05T21:31:03.927Z,6.77
2022-11-05T21:33:30.983Z,9.47
2022-11-05T21:35:58.082Z,7.10
2022-11-05T21:38:25.147Z,7.83
2022-11-05T21:40:51.898Z,5.47
2022-11-05T21:43:18.657Z,7.97
2022-11-05T21:45:45.383Z,7.30
2022-11-05T21:48:15.700Z,8.37
2022-11-05T21:51:01.549Z,10.70
2022-11-05T21:53:47.032Z,10.90
2022-11-05T21:56:38.626Z,7.33
2022-11-05T21:59:24.364Z,6.80
2022-11-05T22:01:51.421Z,5.77
2022-11-05T22:04:18.308Z,6.80
2022-11-05T22:06:44.951Z,8.40
2022-11-05T22:09:12.316Z,7.10
2022-11-05T22:11:39.034Z,5.83
2022-11-05T22:14:05.857Z,7.17
2022-11-05T22:16:32.499Z,6.03
2022-11-05T22:18:59.724Z,4.23
2022-11-05T22:21:26.751Z,5.57
2022-11-05T22:23:53.623Z,5.97
2022-11-05T22:26:20.638Z,5.23
2022-11-05T22:28:47.391Z,6.53
2022-11-05T22:31:15.462Z,5.50
2022-11-05T22:33:42.742Z,4.27
2022-11-05T22:36:10.140Z,6.20
2022-11-05T22:38:37.603Z,5.50
2022-11-05T22:41:17.320Z,7.20
2022-11-05T22:43:45.479Z,5.70
2022-11-05T22:46:18.083Z,4.53
2022-11-05T22:48:46.012Z,5.43
2022-11-05T22:51:18.800Z,5.53
2022-11-05T22:53:46.395Z,5.10
2022-11-05T22:56:16.009Z,5.63
2022-11-05T22:58:43.695Z,4.83
2022-11-05T23:01:12.010Z,5.03
2022-11-05T23:03:40.609Z,5.67
2022-11-05T23:06:35.434Z,4.67
2022-11-05T23:09:23.676Z,6.50
2022-11-05T23:11:52.999Z,5.50
2022-11-05T23:14:20.242Z,6.23
2022-11-05T23:17:05.299Z,4.97
2022-11-05T23:19:50.665Z,3.37
2022-11-05T23:22:39.048Z,4.40
2022-11-05T23:25:08.005Z,4.80
2022-11-05T23:27:37.685Z,5.63
2022-11-05T23:30:09.380Z,4.23
2022-11-05T23:32:36.647Z,3.77
2022-11-05T23:35:04.621Z,7.63
2022-11-05T23:37:50.754Z,7.60
2022-11-05T23:40:20.834Z,4.27
2022-11-05T23:43:06.340Z,5.17
2022-11-05T23:45:52.314Z,4.70
2022-11-05T23:48:26.105Z,4.67
2022-11-05T23:50:55.719Z,4.77
2022-11-05T23:53:23.069Z,6.03
2022-11-05T23:55:50.131Z,6.97
2022-11-05T23:58:17.877Z,4.67
